• Join FlightAware (Why Join?)
  • Login
  • US Flag 
05:38PM EDT


 

Airport Tracker/Info


-or-


 

Live Flight TrackerFlight Track Log ✈ KLM1199 ✈ 13-Jul-2013 ✈ EHAM / AMS - ENZV / SVG

Flight Track Log - Related Links

Times and Time Zones

All times are in EDT time to prevent confusion due to time zone crossing. See the KLM1199 flight status page for this flight to view local times or setup timezone preferences in your user account.

Time Position Orientation Groundspeed Altitude Reporting Facility
EDT Latitude Longitude Course Direction KTS MPH feet Rate Location/Type
03:41AM 52.3080 4.7730 92° East 30 35  Level FlightAware
03:41AM 52.3070 4.7750 129° Southeast 17 20 60 Level FlightAware
03:41AM 52.3060 4.7740 211° Southwest 20 23 60 Level FlightAware
03:42AM 52.3050 4.7710 241° Southwest 25 29 60 Level FlightAware
03:42AM 52.3020 4.7630 238° Southwest 29 33 60 Level FlightAware
03:45AM 52.4645 4.7814 North  Level Estimated
03:46AM 52.5437 4.7904 North  Level Estimated
03:47AM 52.6229 4.7994 North  Level Estimated
03:48AM 52.7022 4.8085 North  Level Estimated
03:49AM 52.7814 4.8176 North  Level Estimated
03:50AM 52.8606 4.8267 North  Level Estimated
03:51AM 52.9399 4.8359 North  Level Estimated
03:52AM 53.0191 4.8451 North  Level Estimated
03:53AM 53.0984 4.8544 North  Level Estimated
03:54AM 53.1776 4.8636 North  Level Estimated
03:55AM 53.2568 4.8730 North  Level Estimated
03:55AM 52.3760 4.7130 North 144 166 1,400  Level FlightAware
03:55AM 52.3970 4.7150 North 147 169 2,500 1,800 Climbing FlightAware
03:56AM 52.4200 4.7170 North 178 205 3,200 1,500 Climbing FlightAware
03:56AM 52.4500 4.7200 North 228 262 4,000 1,920 Climbing FlightAware
03:57AM 52.4780 4.7230 North 246 283 5,000 3,000 Climbing FlightAware
03:57AM 52.5140 4.7260 North 256 295 6,800 3,480 Climbing FlightAware
03:58AM 52.5370 4.7350 13° North 255 293 7,900 3,000 Climbing FlightAware
03:58AM 52.5460 4.7500 45° Northeast 277 319 8,300 2,640 Climbing FlightAware
03:58AM 52.5550 4.7750 59° Northeast 298 343 9,000 3,180 Climbing FlightAware
03:59AM 52.5684 4.8533 59° Northeast 1 1 10,800 2,760 Climbing FlightAware UK
03:59AM 52.5740 4.8820 59° Northeast 335 386 11,100 2,700 Climbing FlightAware
04:00AM 52.5990 4.9720 65° Northeast 343 395 13,200 3,240 Climbing FlightAware
04:00AM 52.6110 4.9870 37° Northeast 343 395 13,800 3,600 Climbing FlightAware
04:00AM 52.6370 5.0030 20° North 343 395 14,700 3,300 Climbing FlightAware
04:01AM 52.7110 5.0090 North 354 407 17,100 3,180 Climbing FlightAware
04:01AM 52.7801 5.0165 North 390 449 19,200 3,180 Climbing FlightAware UK
04:01AM 52.7890 5.0160 North 371 427 19,500 3,000 Climbing FlightAware
04:02AM 52.8410 5.0221 North 398 458 21,000 2,820 Climbing FlightAware UK
04:02AM 52.8550 5.0230 North 371 427 21,400 2,880 Climbing FlightAware
04:03AM 52.9190 5.0280 North 386 444 23,200 2,760 Climbing FlightAware
04:03AM 52.9910 5.0350 North 386 444 24,900 2,340 Climbing FlightAware
04:04AM 53.0730 5.0420 North 404 465 26,500 2,160 Climbing FlightAware
04:05AM 53.1590 5.0500 North 405 466 28,200 2,100 Climbing FlightAware
04:06AM 53.2450 5.0580 North 419 482 29,700 1,920 Climbing FlightAware
04:06AM 53.3230 5.0650 North 415 478 31,000 2,100 Climbing FlightAware
04:07AM 53.3970 5.0720 North 417 480 32,500 2,340 Climbing FlightAware
04:08AM 53.4850 5.0810 North 410 472 34,300 2,100 Climbing FlightAware
04:08AM 53.5720 5.0890 North 399 459 35,700 1,560 Climbing FlightAware
04:09AM 53.6800 5.0990 North 410 472 37,000 1,260 Climbing FlightAware
04:10AM 53.7580 5.1060 North 414 476 37,800 1,080 Climbing FlightAware
04:11AM 53.8350 5.1140 North 419 482 38,500 900 Climbing FlightAware
04:11AM 53.9220 5.1220 North 424 488 39,100 900 Climbing FlightAware
04:12AM 54.0270 5.1320 North 419 482 40,000 840 Climbing FlightAware
04:13AM 54.1050 5.1390 North 421 484 40,500 720 Climbing FlightAware
04:14AM 54.1860 5.1470 North 421 484 41,000 360 Climbing FlightAware
04:14AM 54.2640 5.1550 North 432 497 41,000  Level FlightAware
04:15AM 54.3390 5.1620 North 433 498 41,000  Level FlightAware
04:16AM 54.4360 5.1720 North 433 498 41,000  Level FlightAware
04:16AM 54.5100 5.1750 North 434 499 41,000  Level FlightAware
04:17AM 54.5920 5.1760 360° North 433 498 41,000  Level FlightAware
04:18AM 54.7050 5.1800 North 433 498 41,000  Level FlightAware
04:19AM 54.7780 5.1840 North 432 497 41,000  Level FlightAware
04:20AM 54.9250 5.1910 North 431 496 41,000  Level FlightAware
04:20AM 54.9940 5.1940 North 431 496 41,000  Level FlightAware
04:21AM 55.0783 5.1968 North 454 522 41,000  Level FlightAware UK
04:21AM 55.1110 5.1970 North 430 495 41,000  Level FlightAware
04:22AM 55.1732 5.1996 North 452 520 41,000  Level FlightAware UK
04:22AM 55.2020 5.2000 North 430 495 41,000  Level FlightAware
04:23AM 55.2800 5.2030 North 430 495 41,000  Level FlightAware
04:24AM 55.3780 5.2070 North 431 496 41,000  Level FlightAware
04:24AM 55.3880 5.2073 North 450 518 41,000  Level FlightAware UK
04:24AM 55.4530 5.2100 North 432 497 41,000  Level FlightAware
04:25AM 55.5312 5.2127 North 452 520 41,000  Level FlightAware UK
04:25AM 55.5360 5.2130 North 433 498 41,000  Level FlightAware
04:26AM 55.6110 5.2150 North 435 501 41,000  Level FlightAware
04:26AM 55.7010 5.2190 North 437 503 41,000  Level FlightAware
04:27AM 55.7718 5.2233 North 454 522 41,000  Level FlightAware UK
04:27AM 55.7810 5.2220 North 431 496 41,000  Level FlightAware
04:28AM 55.8700 5.2260 North 432 497 41,000  Level FlightAware
04:28AM 55.9550 5.2290 North 434 499 41,000  Level FlightAware
04:29AM 56.0450 5.2330 North 444 511 41,000  Level FlightAware
04:30AM 56.1264 5.2385 North 1 1 41,000  Level FlightAware UK
04:30AM 56.1310 5.2370 North 446 513 41,000  Level FlightAware
04:31AM 56.2210 5.2400 North 446 513 41,000  Level FlightAware
04:31AM 56.3010 5.2430 North 443 510 41,000  Level FlightAware
04:32AM 56.3738 5.2477 North 1 1 41,000  Level FlightAware UK
04:32AM 56.3940 5.2470 North 443 510 41,000  Level FlightAware
04:33AM 56.4750 5.2500 North 444 511 41,000  Level FlightAware
04:33AM 56.5630 5.2540 North 444 511 41,000  Level FlightAware
04:34AM 56.6490 5.2570 North 445 512 41,000  Level FlightAware
04:35AM 56.7310 5.2600 North 446 513 41,000  Level FlightAware
04:35AM 56.8210 5.2640 North 445 512 41,000  Level FlightAware
04:36AM 56.9110 5.2680 North 445 512 41,000 -240 Level FlightAware
04:37AM 56.9950 5.2710 North 445 512 40,700 -1,320 Descending FlightAware
04:37AM 57.0670 5.2750 North 445 512 39,400 -2,460 Descending FlightAware
04:38AM 57.1510 5.2780 North 450 518 37,600 -2,700 Descending FlightAware
04:39AM 57.2440 5.2820 North 450 518 35,600 -3,000 Descending FlightAware
04:39AM 57.3190 5.2850 North 458 527 33,600 -3,600 Descending FlightAware
04:40AM 57.4050 5.2890 North 465 535 31,100 -3,600 Descending FlightAware
04:41AM 57.4990 5.2930 North 468 539 28,600 -3,120 Descending FlightAware
04:41AM 57.5770 5.2970 North 456 525 27,000 -2,700 Descending FlightAware
04:42AM 57.6680 5.3010 North 445 512 25,000 -2,640 Descending FlightAware
04:43AM 57.7570 5.3050 North 429 494 23,200 -2,580 Descending FlightAware
04:44AM 57.8440 5.3080 North 421 484 21,300 -2,460 Descending FlightAware
04:44AM 57.9190 5.3120 North 414 476 19,800 -2,400 Descending FlightAware
04:45AM 57.9840 5.3150 North 407 468 18,400 -2,280 Descending FlightAware
04:46AM 58.0660 5.3180 North 392 451 16,900 -2,160 Descending FlightAware
04:46AM 58.1370 5.3210 North 381 438 15,400 -2,340 Descending FlightAware
04:47AM 58.1980 5.3240 North 374 430 14,000 -2,400 Descending FlightAware
04:48AM 58.2680 5.3270 North 365 420 12,400 -1,500 Descending FlightAware
04:48AM 58.3380 5.3300 North 327 376 11,900 -900 Descending FlightAware
04:49AM 58.3960 5.3340 North 305 351 11,200 -1,320 Descending FlightAware
04:50AM 58.4570 5.3450 North 298 343 10,100 -1,380 Descending FlightAware
04:50AM 58.4950 5.3600 12° North 295 339 9,500 -1,380 Descending FlightAware
04:51AM 58.5290 5.3970 30° Northeast 289 333 8,800 -1,740 Descending FlightAware
04:51AM 58.5600 5.4350 33° Northeast 283 326 7,900 -1,980 Descending FlightAware
04:52AM 58.5860 5.4680 33° Northeast 279 321 7,100 -1,500 Descending FlightAware
04:52AM 58.6160 5.5020 31° Northeast 258 297 6,600 -1,620 Descending FlightAware
04:52AM 58.6440 5.5360 32° Northeast 244 281 5,600 -2,400 Descending FlightAware
04:53AM 58.6700 5.5660 31° Northeast 242 278 4,400 -2,520 Descending FlightAware
04:53AM 58.6960 5.5970 32° Northeast 230 265 3,300 -2,580 Descending FlightAware
04:54AM 58.7220 5.6290 33° Northeast 227 261 2,000 -2,100 Descending FlightAware
04:54AM 58.7360 5.6390 20° North 206 237 1,800 -300 Descending FlightAware
04:55AM 58.7580 5.6410 North 165 190 1,800 -120 Level FlightAware
04:55AM 58.7790 5.6410 360° North 151 174 1,700 -540 Descending FlightAware
04:56AM 58.7960 5.6400 358° North 144 166 1,300 -840 Descending FlightAware
04:56AM 58.8170 5.6400 360° North 127 146 900 -660 Descending FlightAware
04:56AM 58.8300 5.6390 358° North 125 144 700 -660 Descending FlightAware
04:57AM 58.8390 5.6390 360° North 125 144 500 -720 Descending FlightAware
04:57AM 58.8540 5.6380 358° North 127 146 200 -720 Descending FlightAware
04:57AM 58.8640 5.6380 360° North 131 151 -780 Descending FlightAware
04:58AM 58.8800 5.6380 360° North 110 127  Level FlightAware
04:58AM 58.8870 5.6380 360° North 18 21  Level FlightAware
04:58AM 58.8870 5.6370 270° West 15 17  Level FlightAware
04:59AM 58.8870 5.6350 270° West 14 16  Level FlightAware
04:59AM 58.8870 5.6340 270° West 14 16  Level FlightAware
05:00AM 58.8840 5.6340 180° South 16 18  Level FlightAware
05:00AM 58.8820 5.6330 194° South 15 17  Level FlightAware
05:00AM 58.8800 5.6310 207° Southwest 7 8  Level FlightAware
05:01AM 58.8810 5.6300 333° Northwest 7 8  Level FlightAware
05:03AM 58.8767 5.6378 137° Southeast  Level Estimated